sensor_id;sensor_type;location;lat;lon;timestamp;pressure;altitude;pressure_sealevel;temperature;humidity
35419;BME280;21525;41.240;16.500;2023-04-04T00:02:06;100210.75;;;19.80;44.69
35419;BME280;21525;41.240;16.500;2023-04-04T00:04:32;100207.13;;;19.67;43.84
35419;BME280;21525;41.240;16.500;2023-04-04T00:06:58;100194.34;;;19.75;45.05
35419;BME280;21525;41.240;16.500;2023-04-04T00:09:24;100226.25;;;20.14;46.83
35419;BME280;21525;41.240;16.500;2023-04-04T00:11:49;100216.34;;;20.18;46.17
35419;BME280;21525;41.240;16.500;2023-04-04T00:14:15;100230.44;;;19.74;47.84
35419;BME280;21525;41.240;16.500;2023-04-04T00:16:41;100221.22;;;19.96;48.08
35419;BME280;21525;41.240;16.500;2023-04-04T00:19:07;100215.38;;;19.91;47.93
35419;BME280;21525;41.240;16.500;2023-04-04T00:21:33;100232.88;;;20.36;47.84
35419;BME280;21525;41.240;16.500;2023-04-04T00:23:59;100229.25;;;19.94;49.35
35419;BME280;21525;41.240;16.500;2023-04-04T00:26:24;100235.56;;;19.62;48.88
35419;BME280;21525;41.240;16.500;2023-04-04T00:28:53;100240.81;;;19.92;48.02
35419;BME280;21525;41.240;16.500;2023-04-04T00:31:19;100228.56;;;19.76;48.10
35419;BME280;21525;41.240;16.500;2023-04-04T00:33:46;100226.53;;;19.66;47.82
35419;BME280;21525;41.240;16.500;2023-04-04T00:36:12;100232.59;;;20.12;47.09
35419;BME280;21525;41.240;16.500;2023-04-04T00:38:37;100226.16;;;20.02;45.73
35419;BME280;21525;41.240;16.500;2023-04-04T00:41:03;100228.97;;;19.99;45.78
35419;BME280;21525;41.240;16.500;2023-04-04T00:43:31;100235.72;;;19.59;45.36
35419;BME280;21525;41.240;16.500;2023-04-04T00:45:57;100232.81;;;19.79;44.81
35419;BME280;21525;41.240;16.500;2023-04-04T00:48:23;100232.75;;;19.65;44.69
35419;BME280;21525;41.240;16.500;2023-04-04T00:50:49;100242.22;;;19.53;44.45
35419;BME280;21525;41.240;16.500;2023-04-04T00:53:15;100221.50;;;19.91;45.27
35419;BME280;21525;41.240;16.500;2023-04-04T00:55:41;100233.81;;;20.35;44.59
35419;BME280;21525;41.240;16.500;2023-04-04T00:58:09;100237.97;;;20.25;45.17
35419;BME280;21525;41.240;16.500;2023-04-04T01:00:36;100232.94;;;20.06;44.40
35419;BME280;21525;41.240;16.500;2023-04-04T01:03:02;100240.75;;;20.37;44.16
35419;BME280;21525;41.240;16.500;2023-04-04T01:05:30;100227.09;;;20.45;44.60
35419;BME280;21525;41.240;16.500;2023-04-04T01:07:56;100229.75;;;19.71;45.15
35419;BME280;21525;41.240;16.500;2023-04-04T01:10:22;100236.25;;;20.09;44.41
35419;BME280;21525;41.240;16.500;2023-04-04T01:12:48;100232.38;;;20.01;43.98
35419;BME280;21525;41.240;16.500;2023-04-04T01:15:16;100227.22;;;20.13;43.71
35419;BME280;21525;41.240;16.500;2023-04-04T01:17:42;100237.66;;;20.01;44.25
35419;BME280;21525;41.240;16.500;2023-04-04T01:20:19;100235.91;;;19.86;43.99
35419;BME280;21525;41.240;16.500;2023-04-04T01:22:52;100243.44;;;20.07;42.61
35419;BME280;21525;41.240;16.500;2023-04-04T01:25:27;100224.34;;;20.47;41.74
35419;BME280;21525;41.240;16.500;2023-04-04T01:27:57;100225.53;;;20.12;42.24
35419;BME280;21525;41.240;16.500;2023-04-04T01:30:31;100231.53;;;20.14;42.80
35419;BME280;21525;41.240;16.500;2023-04-04T01:33:09;100229.59;;;20.32;43.17
35419;BME280;21525;41.240;16.500;2023-04-04T01:40:48;100238.47;;;20.74;43.29
35419;BME280;21525;41.240;16.500;2023-04-04T01:43:14;100225.97;;;20.05;43.87
35419;BME280;21525;41.240;16.500;2023-04-04T01:45:42;100242.94;;;19.71;44.05
35419;BME280;21525;41.240;16.500;2023-04-04T01:48:11;100247.47;;;19.53;45.11
35419;BME280;21525;41.240;16.500;2023-04-04T01:50:37;100246.13;;;19.62;45.00
35419;BME280;21525;41.240;16.500;2023-04-04T01:53:03;100242.19;;;19.69;44.58
35419;BME280;21525;41.240;16.500;2023-04-04T01:55:29;100240.63;;;19.81;44.93
35419;BME280;21525;41.240;16.500;2023-04-04T01:57:55;100252.53;;;20.60;43.89
35419;BME280;21525;41.240;16.500;2023-04-04T02:00:21;100244.75;;;20.86;43.45
35419;BME280;21525;41.240;16.500;2023-04-04T02:02:47;100265.38;;;20.66;43.84
35419;BME280;21525;41.240;16.500;2023-04-04T02:05:12;100256.41;;;20.40;44.48
35419;BME280;21525;41.240;16.500;2023-04-04T02:07:39;100257.63;;;20.63;44.15
35419;BME280;21525;41.240;16.500;2023-04-04T02:10:14;100256.88;;;20.47;45.17
35419;BME280;21525;41.240;16.500;2023-04-04T02:12:40;100259.97;;;20.54;44.99
35419;BME280;21525;41.240;16.500;2023-04-04T02:15:06;100270.00;;;20.04;45.62
35419;BME280;21525;41.240;16.500;2023-04-04T02:17:32;100271.94;;;20.31;45.15
35419;BME280;21525;41.240;16.500;2023-04-04T02:20:00;100270.53;;;19.95;44.88
35419;BME280;21525;41.240;16.500;2023-04-04T02:22:26;100269.16;;;20.04;45.36
35419;BME280;21525;41.240;16.500;2023-04-04T02:24:51;100278.09;;;20.01;46.50
35419;BME280;21525;41.240;16.500;2023-04-04T02:27:22;100272.59;;;19.90;47.66
35419;BME280;21525;41.240;16.500;2023-04-04T02:29:48;100272.91;;;20.00;46.99
35419;BME280;21525;41.240;16.500;2023-04-04T02:32:14;100276.94;;;19.30;46.21
35419;BME280;21525;41.240;16.500;2023-04-04T02:34:40;100271.53;;;20.08;44.02
35419;BME280;21525;41.240;16.500;2023-04-04T02:37:06;100260.56;;;20.00;43.73
35419;BME280;21525;41.240;16.500;2023-04-04T02:39:35;100274.38;;;19.60;44.04
35419;BME280;21525;41.240;16.500;2023-04-04T02:42:00;100270.81;;;19.29;43.21
35419;BME280;21525;41.240;16.500;2023-04-04T02:44:26;100251.25;;;19.02;41.52
35419;BME280;21525;41.240;16.500;2023-04-04T02:46:52;100269.03;;;18.83;43.42
35419;BME280;21525;41.240;16.500;2023-04-04T02:49:21;100251.50;;;18.82;46.35
35419;BME280;21525;41.240;16.500;2023-04-04T02:51:49;100266.38;;;18.98;46.78
35419;BME280;21525;41.240;16.500;2023-04-04T02:54:14;100273.44;;;18.82;47.65
35419;BME280;21525;41.240;16.500;2023-04-04T02:56:43;100271.00;;;18.62;49.02
35419;BME280;21525;41.240;16.500;2023-04-04T02:59:09;100263.56;;;18.70;47.93
35419;BME280;21525;41.240;16.500;2023-04-04T03:01:35;100274.97;;;19.33;47.52
35419;BME280;21525;41.240;16.500;2023-04-04T03:04:02;100272.66;;;18.96;47.81
35419;BME280;21525;41.240;16.500;2023-04-04T03:06:31;100278.19;;;18.75;47.34
35419;BME280;21525;41.240;16.500;2023-04-04T03:08:58;100285.59;;;19.48;46.04
35419;BME280;21525;41.240;16.500;2023-04-04T03:11:26;100285.38;;;18.55;46.91
35419;BME280;21525;41.240;16.500;2023-04-04T03:13:53;100276.72;;;18.70;46.44
35419;BME280;21525;41.240;16.500;2023-04-04T03:16:27;100302.72;;;18.43;47.37
35419;BME280;21525;41.240;16.500;2023-04-04T03:18:55;100295.53;;;18.95;46.96
35419;BME280;21525;41.240;16.500;2023-04-04T03:21:21;100307.72;;;19.13;45.59
35419;BME280;21525;41.240;16.500;2023-04-04T03:23:47;100295.78;;;18.91;43.04
35419;BME280;21525;41.240;16.500;2023-04-04T03:26:13;100301.09;;;19.06;42.30
35419;BME280;21525;41.240;16.500;2023-04-04T03:28:40;100311.81;;;19.35;42.20
35419;BME280;21525;41.240;16.500;2023-04-04T03:31:06;100289.00;;;19.18;41.93
35419;BME280;21525;41.240;16.500;2023-04-04T03:33:36;100309.09;;;18.72;42.46
35419;BME280;21525;41.240;16.500;2023-04-04T03:36:08;100306.59;;;18.36;42.33
35419;BME280;21525;41.240;16.500;2023-04-04T03:38:36;100304.56;;;19.07;41.57
35419;BME280;21525;41.240;16.500;2023-04-04T03:41:02;100305.34;;;18.43;42.06
35419;BME280;21525;41.240;16.500;2023-04-04T03:43:29;100322.09;;;19.08;42.14
35419;BME280;21525;41.240;16.500;2023-04-04T03:46:01;100322.34;;;18.53;42.81
35419;BME280;21525;41.240;16.500;2023-04-04T03:48:28;100332.28;;;18.98;42.74
35419;BME280;21525;41.240;16.500;2023-04-04T03:50:57;100324.22;;;18.68;42.74
35419;BME280;21525;41.240;16.500;2023-04-04T03:53:24;100332.56;;;19.09;41.98
35419;BME280;21525;41.240;16.500;2023-04-04T03:55:51;100341.50;;;18.74;42.43
35419;BME280;21525;41.240;16.500;2023-04-04T03:58:19;100347.78;;;18.71;42.47
35419;BME280;21525;41.240;16.500;2023-04-04T04:00:45;100345.66;;;19.27;42.82
35419;BME280;21525;41.240;16.500;2023-04-04T04:03:10;100347.56;;;19.56;42.30
35419;BME280;21525;41.240;16.500;2023-04-04T04:05:36;100342.41;;;19.06;42.81
35419;BME280;21525;41.240;16.500;2023-04-04T04:08:02;100352.78;;;19.09;41.83
35419;BME280;21525;41.240;16.500;2023-04-04T04:10:28;100356.47;;;18.89;42.10
35419;BME280;21525;41.240;16.500;2023-04-04T04:12:54;100351.94;;;19.08;42.47
35419;BME280;21525;41.240;16.500;2023-04-04T04:15:20;100354.34;;;19.13;41.84
35419;BME280;21525;41.240;16.500;2023-04-04T04:17:46;100358.69;;;19.45;41.46
35419;BME280;21525;41.240;16.500;2023-04-04T04:20:12;100361.25;;;18.98;42.33
35419;BME280;21525;41.240;16.500;2023-04-04T04:22:46;100375.19;;;18.67;44.65
35419;BME280;21525;41.240;16.500;2023-04-04T04:25:13;100349.69;;;17.63;47.86
35419;BME280;21525;41.240;16.500;2023-04-04T04:27:42;100358.44;;;17.44;49.96
35419;BME280;21525;41.240;16.500;2023-04-04T04:30:09;100375.25;;;17.59;50.06
35419;BME280;21525;41.240;16.500;2023-04-04T04:32:39;100379.97;;;18.25;48.15
35419;BME280;21525;41.240;16.500;2023-04-04T04:35:07;100375.22;;;17.97;46.84
35419;BME280;21525;41.240;16.500;2023-04-04T04:37:35;100385.63;;;18.00;46.60
35419;BME280;21525;41.240;16.500;2023-04-04T04:40:02;100394.13;;;17.50;47.32
35419;BME280;21525;41.240;16.500;2023-04-04T04:42:45;100382.59;;;17.15;47.75
35419;BME280;21525;41.240;16.500;2023-04-04T04:45:13;100392.44;;;17.68;46.13
35419;BME280;21525;41.240;16.500;2023-04-04T04:47:43;100394.25;;;17.28;46.16
35419;BME280;21525;41.240;16.500;2023-04-04T04:50:13;100402.03;;;17.69;47.18
35419;BME280;21525;41.240;16.500;2023-04-04T04:52:43;100396.84;;;17.67;47.46
35419;BME280;21525;41.240;16.500;2023-04-04T04:55:09;100402.19;;;18.02;48.63
35419;BME280;21525;41.240;16.500;2023-04-04T04:57:38;100400.84;;;17.56;49.13
35419;BME280;21525;41.240;16.500;2023-04-04T05:00:11;100396.31;;;17.40;49.86
35419;BME280;21525;41.240;16.500;2023-04-04T05:02:37;100408.94;;;17.13;51.32
35419;BME280;21525;41.240;16.500;2023-04-04T05:05:04;100423.47;;;17.60;49.38
35419;BME280;21525;41.240;16.500;2023-04-04T05:07:31;100397.13;;;17.03;50.25
35419;BME280;21525;41.240;16.500;2023-04-04T05:09:58;100412.13;;;17.78;47.12
35419;BME280;21525;41.240;16.500;2023-04-04T05:12:23;100411.00;;;18.01;47.89
35419;BME280;21525;41.240;16.500;2023-04-04T05:14:51;100408.19;;;17.49;49.05
35419;BME280;21525;41.240;16.500;2023-04-04T05:17:17;100415.72;;;16.99;50.11
35419;BME280;21525;41.240;16.500;2023-04-04T05:19:42;100422.56;;;17.79;49.13
35419;BME280;21525;41.240;16.500;2023-04-04T05:22:13;100409.34;;;17.43;50.11
35419;BME280;21525;41.240;16.500;2023-04-04T05:24:44;100426.09;;;17.41;50.39
35419;BME280;21525;41.240;16.500;2023-04-04T05:27:14;100419.34;;;17.35;51.99
35419;BME280;21525;41.240;16.500;2023-04-04T05:29:45;100418.13;;;17.61;49.04
35419;BME280;21525;41.240;16.500;2023-04-04T05:32:13;100412.72;;;17.27;51.15
35419;BME280;21525;41.240;16.500;2023-04-04T05:34:41;100416.34;;;17.99;50.08
35419;BME280;21525;41.240;16.500;2023-04-04T05:37:12;100428.47;;;17.85;48.76
35419;BME280;21525;41.240;16.500;2023-04-04T05:39:38;100431.16;;;17.45;49.98
35419;BME280;21525;41.240;16.500;2023-04-04T05:42:07;100430.28;;;17.64;48.96
35419;BME280;21525;41.240;16.500;2023-04-04T05:44:38;100433.66;;;17.67;49.81
35419;BME280;21525;41.240;16.500;2023-04-04T05:47:05;100433.56;;;17.88;48.72
35419;BME280;21525;41.240;16.500;2023-04-04T05:49:31;100449.22;;;17.53;50.12
35419;BME280;21525;41.240;16.500;2023-04-04T05:51:59;100441.22;;;17.92;48.39
35419;BME280;21525;41.240;16.500;2023-04-04T05:54:26;100448.94;;;18.50;46.88
35419;BME280;21525;41.240;16.500;2023-04-04T05:56:52;100453.16;;;18.71;47.26
35419;BME280;21525;41.240;16.500;2023-04-04T05:59:32;100461.25;;;19.52;46.06
35419;BME280;21525;41.240;16.500;2023-04-04T06:02:02;100465.47;;;19.21;47.44
35419;BME280;21525;41.240;16.500;2023-04-04T06:04:29;100466.75;;;18.45;48.50
35419;BME280;21525;41.240;16.500;2023-04-04T06:06:57;100479.81;;;18.83;47.87
35419;BME280;21525;41.240;16.500;2023-04-04T06:09:23;100491.22;;;19.33;48.11
35419;BME280;21525;41.240;16.500;2023-04-04T06:11:49;100490.97;;;18.70;52.26
35419;BME280;21525;41.240;16.500;2023-04-04T06:14:15;100502.69;;;18.46;55.72
35419;BME280;21525;41.240;16.500;2023-04-04T06:16:43;100499.97;;;18.84;55.82
35419;BME280;21525;41.240;16.500;2023-04-04T06:19:08;100505.91;;;18.34;59.50
35419;BME280;21525;41.240;16.500;2023-04-04T08:25:11;100625.16;;;16.75;100.00
35419;BME280;21525;41.240;16.500;2023-04-04T08:27:40;100617.03;;;17.23;100.00
35419;BME280;21525;41.240;16.500;2023-04-04T08:30:08;100627.69;;;17.40;100.00
35419;BME280;21525;41.240;16.500;2023-04-04T08:32:34;100617.84;;;18.24;100.00
35419;BME280;21525;41.240;16.500;2023-04-04T09:16:02;100642.16;;;19.21;92.45
35419;BME280;21525;41.240;16.500;2023-04-04T09:18:28;100644.44;;;18.93;84.90
35419;BME280;21525;41.240;16.500;2023-04-04T09:20:54;100648.16;;;18.89;80.86
35419;BME280;21525;41.240;16.500;2023-04-04T09:23:20;100639.31;;;18.90;78.31
35419;BME280;21525;41.240;16.500;2023-04-04T09:25:54;100650.44;;;18.59;71.99
35419;BME280;21525;41.240;16.500;2023-04-04T09:28:21;100639.66;;;19.01;69.78
35419;BME280;21525;41.240;16.500;2023-04-04T09:30:49;100654.03;;;19.47;67.01
35419;BME280;21525;41.240;16.500;2023-04-04T09:33:16;100661.25;;;18.90;67.48
35419;BME280;21525;41.240;16.500;2023-04-04T09:35:49;100663.31;;;19.02;67.08
35419;BME280;21525;41.240;16.500;2023-04-04T09:38:17;100663.44;;;18.63;65.44
35419;BME280;21525;41.240;16.500;2023-04-04T09:40:43;100668.16;;;18.93;61.35
35419;BME280;21525;41.240;16.500;2023-04-04T09:43:11;100669.16;;;18.90;61.61
35419;BME280;21525;41.240;16.500;2023-04-04T09:45:39;100668.72;;;19.53;61.61
35419;BME280;21525;41.240;16.500;2023-04-04T09:48:05;100673.34;;;19.30;60.04
35419;BME280;21525;41.240;16.500;2023-04-04T09:50:33;100666.75;;;18.86;59.40
35419;BME280;21525;41.240;16.500;2023-04-04T09:53:00;100669.94;;;18.92;60.23
35419;BME280;21525;41.240;16.500;2023-04-04T09:55:33;100678.88;;;18.71;60.93
35419;BME280;21525;41.240;16.500;2023-04-04T09:58:15;100685.66;;;18.76;60.89
35419;BME280;21525;41.240;16.500;2023-04-04T10:00:44;100697.25;;;18.72;62.19
35419;BME280;21525;41.240;16.500;2023-04-04T10:03:17;100689.09;;;19.15;60.21
35419;BME280;21525;41.240;16.500;2023-04-04T10:05:46;100705.66;;;18.62;60.41
35419;BME280;21525;41.240;16.500;2023-04-04T10:08:17;100710.31;;;19.65;58.91
35419;BME280;21525;41.240;16.500;2023-04-04T10:10:49;100716.38;;;19.31;62.67
35419;BME280;21525;41.240;16.500;2023-04-04T10:13:25;100725.09;;;18.78;65.94
35419;BME280;21525;41.240;16.500;2023-04-04T10:15:56;100733.56;;;18.85;69.07
35419;BME280;21525;41.240;16.500;2023-04-04T10:18:27;100731.28;;;18.96;70.31
35419;BME280;21525;41.240;16.500;2023-04-04T10:20:54;100740.59;;;18.26;73.33
35419;BME280;21525;41.240;16.500;2023-04-04T10:23:21;100738.59;;;17.92;72.92
35419;BME280;21525;41.240;16.500;2023-04-04T10:25:50;100729.13;;;18.48;68.42
35419;BME280;21525;41.240;16.500;2023-04-04T10:28:17;100724.34;;;18.56;65.53
35419;BME280;21525;41.240;16.500;2023-04-04T10:30:48;100720.63;;;18.41;67.92
35419;BME280;21525;41.240;16.500;2023-04-04T10:33:22;100720.91;;;18.54;70.46
35419;BME280;21525;41.240;16.500;2023-04-04T10:35:53;100724.31;;;18.76;70.52
35419;BME280;21525;41.240;16.500;2023-04-04T10:38:27;100727.69;;;19.16;65.09
35419;BME280;21525;41.240;16.500;2023-04-04T10:40:58;100726.25;;;18.72;66.84
35419;BME280;21525;41.240;16.500;2023-04-04T10:43:25;100720.44;;;19.02;65.33
35419;BME280;21525;41.240;16.500;2023-04-04T10:46:00;100720.16;;;18.89;64.56
35419;BME280;21525;41.240;16.500;2023-04-04T10:48:32;100738.00;;;18.84;64.23
35419;BME280;21525;41.240;16.500;2023-04-04T10:50:59;100724.16;;;18.98;63.57
35419;BME280;21525;41.240;16.500;2023-04-04T10:53:26;100723.56;;;19.46;62.19
35419;BME280;21525;41.240;16.500;2023-04-04T10:55:52;100719.47;;;19.58;61.59
35419;BME280;21525;41.240;16.500;2023-04-04T10:58:20;100727.31;;;19.76;63.29
35419;BME280;21525;41.240;16.500;2023-04-04T11:00:51;100732.28;;;19.65;66.18
35419;BME280;21525;41.240;16.500;2023-04-04T11:03:17;100725.28;;;20.65;64.17
35419;BME280;21525;41.240;16.500;2023-04-04T11:05:42;100727.53;;;20.72;64.98
35419;BME280;21525;41.240;16.500;2023-04-04T11:08:17;100721.56;;;21.00;64.52
35419;BME280;21525;41.240;16.500;2023-04-04T11:10:47;100725.13;;;20.84;62.18
35419;BME280;21525;41.240;16.500;2023-04-04T11:13:17;100732.81;;;21.04;58.83
35419;BME280;21525;41.240;16.500;2023-04-04T11:21:08;100731.50;;;20.79;54.35
35419;BME280;21525;41.240;16.500;2023-04-04T11:26:11;100734.94;;;20.33;54.92
35419;BME280;21525;41.240;16.500;2023-04-04T11:39:29;100738.22;;;20.54;57.49
35419;BME280;21525;41.240;16.500;2023-04-04T11:42:05;100752.19;;;20.40;58.59
35419;BME280;21525;41.240;16.500;2023-04-04T11:44:39;100757.00;;;20.32;60.14
35419;BME280;21525;41.240;16.500;2023-04-04T11:49:41;100741.94;;;20.67;56.46
35419;BME280;21525;41.240;16.500;2023-04-04T11:52:08;100761.66;;;20.44;57.11
35419;BME280;21525;41.240;16.500;2023-04-04T11:54:35;100747.03;;;20.86;57.43
35419;BME280;21525;41.240;16.500;2023-04-04T11:57:04;100751.63;;;20.82;56.22
35419;BME280;21525;41.240;16.500;2023-04-04T11:59:30;100751.88;;;20.62;56.74
35419;BME280;21525;41.240;16.500;2023-04-04T12:01:56;100749.59;;;20.71;55.29
35419;BME280;21525;41.240;16.500;2023-04-04T12:04:24;100757.28;;;20.76;56.42
35419;BME280;21525;41.240;16.500;2023-04-04T12:06:55;100751.56;;;20.68;56.07
35419;BME280;21525;41.240;16.500;2023-04-04T12:09:22;100753.34;;;20.34;56.75
35419;BME280;21525;41.240;16.500;2023-04-04T12:11:50;100753.91;;;20.41;55.49
35419;BME280;21525;41.240;16.500;2023-04-04T12:14:20;100750.59;;;20.53;53.26
35419;BME280;21525;41.240;16.500;2023-04-04T12:16:47;100737.41;;;20.36;52.95
35419;BME280;21525;41.240;16.500;2023-04-04T12:19:14;100734.59;;;19.54;52.69
35419;BME280;21525;41.240;16.500;2023-04-04T12:21:40;100736.22;;;19.91;51.44
35419;BME280;21525;41.240;16.500;2023-04-04T12:24:07;100727.63;;;20.21;50.57
35419;BME280;21525;41.240;16.500;2023-04-04T12:26:41;100730.78;;;19.94;49.13
35419;BME280;21525;41.240;16.500;2023-04-04T12:29:08;100731.63;;;20.12;49.01
35419;BME280;21525;41.240;16.500;2023-04-04T12:31:37;100741.25;;;19.08;50.08
35419;BME280;21525;41.240;16.500;2023-04-04T12:34:04;100742.19;;;19.43;49.58
35419;BME280;21525;41.240;16.500;2023-04-04T12:36:30;100754.81;;;19.18;51.24
35419;BME280;21525;41.240;16.500;2023-04-04T12:38:59;100748.44;;;19.40;50.26
35419;BME280;21525;41.240;16.500;2023-04-04T12:41:25;100761.28;;;18.74;50.83
35419;BME280;21525;41.240;16.500;2023-04-04T12:44:05;100759.09;;;19.20;49.33
35419;BME280;21525;41.240;16.500;2023-04-04T12:46:35;100766.81;;;19.61;48.54
35419;BME280;21525;41.240;16.500;2023-04-04T12:49:10;100782.41;;;19.65;49.32
35419;BME280;21525;41.240;16.500;2023-04-04T12:51:37;100770.47;;;20.10;49.58
35419;BME280;21525;41.240;16.500;2023-04-04T12:54:03;100775.19;;;20.21;51.24
35419;BME280;21525;41.240;16.500;2023-04-04T12:56:31;100784.91;;;19.86;51.96
35419;BME280;21525;41.240;16.500;2023-04-04T12:59:01;100781.88;;;20.45;52.18
35419;BME280;21525;41.240;16.500;2023-04-04T13:01:30;100784.97;;;20.19;54.22
35419;BME280;21525;41.240;16.500;2023-04-04T13:04:01;100777.22;;;19.64;56.10
35419;BME280;21525;41.240;16.500;2023-04-04T13:06:30;100770.84;;;20.70;53.18
35419;BME280;21525;41.240;16.500;2023-04-04T13:08:56;100771.13;;;19.44;58.38
35419;BME280;21525;41.240;16.500;2023-04-04T13:11:22;100773.78;;;19.26;60.47
35419;BME280;21525;41.240;16.500;2023-04-04T13:14:00;100774.34;;;19.32;61.67
35419;BME280;21525;41.240;16.500;2023-04-04T13:18:55;100762.47;;;19.94;59.69
35419;BME280;21525;41.240;16.500;2023-04-04T13:21:22;100768.09;;;20.21;60.29
35419;BME280;21525;41.240;16.500;2023-04-04T13:23:47;100770.66;;;19.54;60.53
35419;BME280;21525;41.240;16.500;2023-04-04T13:26:13;100769.22;;;20.00;60.55
35419;BME280;21525;41.240;16.500;2023-04-04T13:28:39;100766.69;;;19.45;61.28
35419;BME280;21525;41.240;16.500;2023-04-04T13:31:06;100777.47;;;19.76;61.10
35419;BME280;21525;41.240;16.500;2023-04-04T13:33:33;100783.22;;;19.49;63.64
35419;BME280;21525;41.240;16.500;2023-04-04T13:35:59;100782.91;;;19.73;63.93
35419;BME280;21525;41.240;16.500;2023-04-04T13:38:26;100776.03;;;20.21;61.11
35419;BME280;21525;41.240;16.500;2023-04-04T13:40:53;100776.13;;;19.32;60.58
35419;BME280;21525;41.240;16.500;2023-04-04T13:43:19;100784.13;;;19.11;62.02
35419;BME280;21525;41.240;16.500;2023-04-04T13:45:46;100787.47;;;19.70;59.33
35419;BME280;21525;41.240;16.500;2023-04-04T13:48:12;100782.56;;;19.07;60.42
35419;BME280;21525;41.240;16.500;2023-04-04T13:50:39;100777.69;;;19.36;57.32
35419;BME280;21525;41.240;16.500;2023-04-04T13:53:06;100780.09;;;19.40;57.26
35419;BME280;21525;41.240;16.500;2023-04-04T13:55:32;100789.38;;;19.30;55.65
35419;BME280;21525;41.240;16.500;2023-04-04T13:57:58;100781.25;;;19.35;55.67
35419;BME280;21525;41.240;16.500;2023-04-04T14:00:24;100787.59;;;19.31;55.43
35419;BME280;21525;41.240;16.500;2023-04-04T14:02:50;100792.28;;;19.43;53.64
35419;BME280;21525;41.240;16.500;2023-04-04T14:05:17;100796.03;;;19.01;54.79
35419;BME280;21525;41.240;16.500;2023-04-04T14:07:43;100797.56;;;19.24;53.15
35419;BME280;21525;41.240;16.500;2023-04-04T14:10:09;100793.41;;;19.56;52.34
35419;BME280;21525;41.240;16.500;2023-04-04T14:12:38;100801.34;;;19.37;52.56
35419;BME280;21525;41.240;16.500;2023-04-04T14:15:04;100797.56;;;19.43;52.29
35419;BME280;21525;41.240;16.500;2023-04-04T14:17:32;100810.34;;;19.33;50.87
35419;BME280;21525;41.240;16.500;2023-04-04T14:19:58;100807.34;;;19.41;51.36
35419;BME280;21525;41.240;16.500;2023-04-04T14:22:23;100818.44;;;19.48;51.67
35419;BME280;21525;41.240;16.500;2023-04-04T14:24:50;100809.22;;;19.75;52.04
35419;BME280;21525;41.240;16.500;2023-04-04T14:27:16;100814.34;;;19.95;51.61
35419;BME280;21525;41.240;16.500;2023-04-04T14:29:42;100820.25;;;20.00;51.36
35419;BME280;21525;41.240;16.500;2023-04-04T14:32:09;100818.56;;;19.63;52.24
35419;BME280;21525;41.240;16.500;2023-04-04T14:34:35;100819.63;;;19.95;52.15
35419;BME280;21525;41.240;16.500;2023-04-04T14:37:01;100825.75;;;19.96;52.38
35419;BME280;21525;41.240;16.500;2023-04-04T14:39:26;100830.38;;;20.44;50.45
35419;BME280;21525;41.240;16.500;2023-04-04T14:41:52;100826.78;;;20.45;49.93
35419;BME280;21525;41.240;16.500;2023-04-04T14:44:18;100831.75;;;19.99;50.79
35419;BME280;21525;41.240;16.500;2023-04-04T14:46:45;100827.34;;;19.64;51.47
35419;BME280;21525;41.240;16.500;2023-04-04T14:49:11;100826.69;;;19.95;50.38
35419;BME280;21525;41.240;16.500;2023-04-04T14:51:37;100827.75;;;20.60;49.84
35419;BME280;21525;41.240;16.500;2023-04-04T14:54:03;100818.69;;;19.79;49.92
35419;BME280;21525;41.240;16.500;2023-04-04T14:56:29;100828.00;;;20.03;49.77
35419;BME280;21525;41.240;16.500;2023-04-04T14:58:55;100831.84;;;19.62;50.47
35419;BME280;21525;41.240;16.500;2023-04-04T15:01:21;100824.13;;;19.76;50.25
35419;BME280;21525;41.240;16.500;2023-04-04T15:03:48;100831.41;;;19.88;49.38
35419;BME280;21525;41.240;16.500;2023-04-04T15:06:14;100832.03;;;19.93;49.12
35419;BME280;21525;41.240;16.500;2023-04-04T15:08:40;100836.94;;;20.01;48.54
35419;BME280;21525;41.240;16.500;2023-04-04T15:11:06;100834.69;;;20.28;48.96
35419;BME280;21525;41.240;16.500;2023-04-04T15:13:32;100833.31;;;21.04;47.03
35419;BME280;21525;41.240;16.500;2023-04-04T15:15:58;100830.88;;;21.32;45.92
35419;BME280;21525;41.240;16.500;2023-04-04T15:18:26;100832.97;;;21.10;45.56
35419;BME280;21525;41.240;16.500;2023-04-04T15:20:52;100836.94;;;20.86;45.57
35419;BME280;21525;41.240;16.500;2023-04-04T15:23:18;100839.72;;;20.32;46.95
35419;BME280;21525;41.240;16.500;2023-04-04T15:25:43;100837.28;;;20.47;46.00
35419;BME280;21525;41.240;16.500;2023-04-04T15:28:09;100843.94;;;20.36;46.26
35419;BME280;21525;41.240;16.500;2023-04-04T15:30:35;100844.91;;;21.17;45.00
35419;BME280;21525;41.240;16.500;2023-04-04T15:33:01;100851.72;;;20.39;46.73
35419;BME280;21525;41.240;16.500;2023-04-04T15:35:26;100846.72;;;20.51;46.78
35419;BME280;21525;41.240;16.500;2023-04-04T15:37:52;100850.63;;;20.43;46.80
35419;BME280;21525;41.240;16.500;2023-04-04T15:40:18;100859.78;;;20.54;46.95
35419;BME280;21525;41.240;16.500;2023-04-04T15:42:44;100862.38;;;20.38;47.70
35419;BME280;21525;41.240;16.500;2023-04-04T15:45:12;100858.63;;;20.07;47.29
35419;BME280;21525;41.240;16.500;2023-04-04T15:47:39;100856.81;;;20.25;46.55
35419;BME280;21525;41.240;16.500;2023-04-04T15:50:06;100853.16;;;19.76;47.41
35419;BME280;21525;41.240;16.500;2023-04-04T15:52:32;100862.28;;;19.69;48.58
35419;BME280;21525;41.240;16.500;2023-04-04T15:54:58;100859.34;;;19.75;48.50
35419;BME280;21525;41.240;16.500;2023-04-04T15:57:24;100860.16;;;20.29;46.88